Accueil
METAR-TAF:

METAR-TAF

Aéroports :

Aéroport international de Rarotonga

Rarotonga, Îles Cook

latitude: 21-12S, longitude: 159-49W, altitude: 7 m

Observation

Le bulletin a été fait il y a 16 minutes, à 05:00 UTC
Vent 8 kt de ouest/sud-ouest
Température 27°C
Humidité 58%
Pression 1004 hPa
Visibilité 10 km ou plus

METAR: NCRG 230500Z AUTO 25008KT 9999 FEW044/// 27/18 Q1004

Heure: 19:16 (05:16 UTC)

Prévision

Le bulletin a été fait il y a 6 heures et 15 minutes, à 23:01 UTC
Prévision valable du 23 à 00 UTC au 23 à 24 UTC
Vent 7 kt de sud
Visibilité 10 km ou plus
Nuages épars à une hauteur de 2000 ft
Nuages fragmentés à une hauteur de 5500 ft

TAF: NCRG 222301Z 2300/2324 17007KT 9999 SCT020 BKN055

Observations et prévisions météorologiques de plus de 4000 aéroports (messages METAR et TAF).

Les stations disponibles sont représentées par des disques jaunes et rouges sur la carte.

Passer la souris dessus pour voir le nom de la station.

Cliquer dessus pour voir les observations et prévisions météorologiques.

Pour changer de carte: cliquez sur les boutons verts avec une croix noire pour zoomer, sur le bouton vert avec un tiret pour effectuer un zoom arrière, ou sur les flèches vertes pour les cartes adjacentes.


METAR-TAF: